createdAt,value
2023-05-09T00:01:29.954Z,16.92
2023-05-09T00:03:56.429Z,16.94
2023-05-09T00:06:23.251Z,16.93
2023-05-09T00:08:49.685Z,16.93
2023-05-09T00:11:16.083Z,16.95
2023-05-09T00:13:44.072Z,16.92
2023-05-09T00:16:10.837Z,16.90
2023-05-09T00:18:38.073Z,16.88
2023-05-09T00:21:04.588Z,16.88
2023-05-09T00:23:31.068Z,16.83
2023-05-09T00:25:58.176Z,16.89
2023-05-09T00:28:24.598Z,16.91
2023-05-09T00:30:51.035Z,16.89
2023-05-09T00:33:17.492Z,16.91
2023-05-09T00:35:43.877Z,16.91
2023-05-09T00:38:10.431Z,16.91
2023-05-09T00:40:39.626Z,16.92
2023-05-09T00:43:06.091Z,16.91
2023-05-09T00:45:32.619Z,16.90
2023-05-09T00:47:59.209Z,16.89
2023-05-09T00:50:25.670Z,16.85
2023-05-09T00:52:52.207Z,16.84
2023-05-09T00:55:19.538Z,16.81
2023-05-09T00:57:46.142Z,16.76
2023-05-09T01:00:13.567Z,16.75
2023-05-09T01:02:53.984Z,16.71
2023-05-09T01:05:22.754Z,16.70
2023-05-09T01:08:13.137Z,16.66
2023-05-09T01:10:55.992Z,16.57
2023-05-09T01:13:34.236Z,16.58
2023-05-09T01:16:06.129Z,16.55
2023-05-09T01:18:54.303Z,16.55
2023-05-09T01:21:27.952Z,16.49
2023-05-09T01:24:24.833Z,16.47
2023-05-09T01:27:28.597Z,16.41
2023-05-09T01:30:03.026Z,16.36
2023-05-09T01:32:31.974Z,16.29
2023-05-09T01:35:01.405Z,16.34
2023-05-09T01:37:31.663Z,16.32
2023-05-09T01:40:06.760Z,16.31
2023-05-09T01:43:04.078Z,16.29
2023-05-09T01:45:32.680Z,16.29
2023-05-09T01:48:00.093Z,16.30
2023-05-09T01:50:29.356Z,16.33
2023-05-09T01:52:58.544Z,16.32
2023-05-09T01:55:28.349Z,16.35
2023-05-09T01:57:56.567Z,16.33
2023-05-09T02:00:24.115Z,16.34
2023-05-09T02:02:51.964Z,16.37
2023-05-09T02:05:18.818Z,16.37
2023-05-09T02:07:47.394Z,16.36
2023-05-09T02:10:15.822Z,16.33
2023-05-09T02:12:42.313Z,16.32
2023-05-09T02:15:09.596Z,16.31
2023-05-09T02:17:36.094Z,16.25
2023-05-09T02:20:02.544Z,16.21
2023-05-09T02:22:28.956Z,16.22
2023-05-09T02:24:59.020Z,16.22
2023-05-09T02:27:27.043Z,16.23
2023-05-09T02:29:57.561Z,16.21
2023-05-09T02:32:34.115Z,16.09
2023-05-09T02:35:02.898Z,16.10
2023-05-09T02:37:29.828Z,16.09
2023-05-09T02:39:56.674Z,16.01
2023-05-09T02:42:30.187Z,15.97
2023-05-09T02:44:56.623Z,15.94
2023-05-09T02:47:23.198Z,15.97
2023-05-09T02:49:49.690Z,15.97
2023-05-09T02:52:16.197Z,15.99
2023-05-09T02:54:42.630Z,16.00
2023-05-09T02:57:09.035Z,15.99
2023-05-09T02:59:40.973Z,16.02
2023-05-09T03:02:07.430Z,15.95
2023-05-09T03:04:34.080Z,16.01
2023-05-09T03:07:00.512Z,16.01
2023-05-09T03:09:26.970Z,16.02
2023-05-09T03:11:56.299Z,16.02
2023-05-09T03:14:23.053Z,16.04
2023-05-09T03:16:50.990Z,15.96
2023-05-09T03:19:17.477Z,16.00
2023-05-09T03:21:44.003Z,16.01
2023-05-09T03:24:10.411Z,16.00
2023-05-09T03:26:41.588Z,16.00
2023-05-09T03:29:07.990Z,16.01
2023-05-09T03:31:34.717Z,15.97
2023-05-09T03:34:01.135Z,15.93
2023-05-09T03:36:27.550Z,15.92
2023-05-09T03:38:54.125Z,15.89
2023-05-09T03:41:20.792Z,15.83
2023-05-09T03:43:50.275Z,15.84
2023-05-09T03:46:16.814Z,15.81
2023-05-09T03:48:43.322Z,15.78
2023-05-09T03:51:12.581Z,15.80
2023-05-09T03:53:38.959Z,15.79
2023-05-09T03:56:06.527Z,15.75
2023-05-09T03:58:32.933Z,15.79
2023-05-09T04:00:59.391Z,15.73
2023-05-09T04:03:26.963Z,15.71
2023-05-09T04:05:55.604Z,15.72
2023-05-09T04:08:22.126Z,15.70
2023-05-09T04:10:50.210Z,15.71
2023-05-09T04:13:16.908Z,15.72
2023-05-09T04:15:43.495Z,15.70
2023-05-09T04:18:09.901Z,15.66
2023-05-09T04:20:36.471Z,15.61
2023-05-09T04:23:03.080Z,15.58
2023-05-09T04:25:31.059Z,15.55
2023-05-09T04:27:57.744Z,15.55
2023-05-09T04:30:27.350Z,15.55
2023-05-09T04:32:55.369Z,15.55
2023-05-09T04:35:22.667Z,15.54
2023-05-09T04:37:49.511Z,15.54
2023-05-09T04:40:16.004Z,15.50
2023-05-09T04:42:42.439Z,15.44
2023-05-09T04:45:11.586Z,15.43
2023-05-09T04:47:38.564Z,15.39
2023-05-09T04:50:06.724Z,15.36
2023-05-09T04:52:33.243Z,15.35
2023-05-09T04:54:59.621Z,15.36
2023-05-09T04:57:26.106Z,15.36
2023-05-09T04:59:53.020Z,15.37
2023-05-09T05:02:21.175Z,15.37
2023-05-09T05:04:47.794Z,15.39
2023-05-09T05:07:17.251Z,15.37
2023-05-09T05:09:44.089Z,15.41
2023-05-09T05:12:10.594Z,15.41
2023-05-09T05:14:37.046Z,15.42
2023-05-09T05:17:05.874Z,15.47
2023-05-09T05:19:32.268Z,15.49
2023-05-09T05:21:58.820Z,15.44
2023-05-09T05:24:25.312Z,15.48
2023-05-09T05:26:51.997Z,15.55
2023-05-09T05:29:18.526Z,15.59
2023-05-09T05:31:45.141Z,15.64
2023-05-09T05:34:11.729Z,15.67
2023-05-09T05:36:38.107Z,15.68
2023-05-09T05:39:04.604Z,15.68
2023-05-09T05:41:31.490Z,15.71
2023-05-09T05:43:58.072Z,15.72
2023-05-09T05:46:24.694Z,15.71
2023-05-09T05:48:51.225Z,15.74
2023-05-09T05:51:17.672Z,15.75
2023-05-09T05:53:44.248Z,15.79
2023-05-09T05:56:10.687Z,15.81
2023-05-09T05:58:37.193Z,15.82
2023-05-09T06:01:03.891Z,15.80
2023-05-09T06:03:30.850Z,15.85
2023-05-09T06:05:57.657Z,15.80
2023-05-09T06:08:24.069Z,15.87
2023-05-09T06:10:50.534Z,15.89
2023-05-09T06:13:17.117Z,15.87
2023-05-09T06:15:43.874Z,15.88
2023-05-09T06:18:10.597Z,15.91
2023-05-09T06:20:37.162Z,15.88
2023-05-09T06:23:03.570Z,15.88
2023-05-09T06:25:30.963Z,15.86
2023-05-09T06:27:57.687Z,15.89
2023-05-09T06:30:26.670Z,15.90
2023-05-09T06:32:54.449Z,15.96
2023-05-09T06:35:21.384Z,15.96
2023-05-09T06:37:48.858Z,15.93
2023-05-09T06:40:16.258Z,15.94
2023-05-09T06:42:42.738Z,15.92
2023-05-09T06:45:09.598Z,15.95
2023-05-09T06:47:36.017Z,15.92
2023-05-09T06:50:02.512Z,15.87
2023-05-09T06:52:28.936Z,15.82
2023-05-09T06:54:55.438Z,15.81
2023-05-09T06:57:24.781Z,15.82
2023-05-09T06:59:51.284Z,15.80
2023-05-09T07:02:20.696Z,15.81
2023-05-09T07:04:47.240Z,15.85
2023-05-09T07:07:13.983Z,15.85
2023-05-09T07:09:40.360Z,15.79
2023-05-09T07:12:06.979Z,15.76
2023-05-09T07:14:33.405Z,15.73
2023-05-09T07:17:13.833Z,15.73
2023-05-09T07:19:46.291Z,15.75
2023-05-09T07:22:13.512Z,15.74
2023-05-09T07:24:40.050Z,15.75
2023-05-09T07:27:06.450Z,15.74
2023-05-09T07:29:32.831Z,15.74
2023-05-09T07:31:59.302Z,15.74
2023-05-09T07:34:26.589Z,15.76
2023-05-09T07:36:54.424Z,15.71
2023-05-09T07:39:20.867Z,15.80
2023-05-09T07:41:48.732Z,15.84
2023-05-09T07:44:15.852Z,15.85
2023-05-09T07:46:42.722Z,15.85
2023-05-09T07:49:09.319Z,15.82
2023-05-09T07:51:35.907Z,15.83
2023-05-09T07:54:04.749Z,15.83
2023-05-09T07:56:31.244Z,15.82
2023-05-09T07:58:57.714Z,15.83
2023-05-09T08:01:24.286Z,15.85
2023-05-09T08:03:51.169Z,15.94
2023-05-09T08:06:17.765Z,15.95
2023-05-09T08:08:44.294Z,15.96
2023-05-09T08:11:10.875Z,15.97
2023-05-09T08:13:37.491Z,16.00
2023-05-09T08:16:04.236Z,16.04
2023-05-09T08:18:31.068Z,16.09
2023-05-09T08:20:59.509Z,16.11
2023-05-09T08:23:26.508Z,16.14
2023-05-09T08:25:54.470Z,16.16
2023-05-09T08:28:24.036Z,16.12
2023-05-09T08:30:53.615Z,16.08
2023-05-09T08:33:20.217Z,16.06
2023-05-09T08:35:53.551Z,16.01
2023-05-09T08:38:24.204Z,16.03
2023-05-09T08:40:50.691Z,16.09
2023-05-09T08:43:21.993Z,16.09
2023-05-09T08:45:58.022Z,16.11
2023-05-09T08:48:27.823Z,16.11
2023-05-09T08:50:56.111Z,16.17
2023-05-09T08:53:23.724Z,16.17
2023-05-09T08:55:50.882Z,16.17
2023-05-09T08:58:19.776Z,16.15
2023-05-09T09:00:47.075Z,16.16
2023-05-09T09:03:13.889Z,16.18
2023-05-09T09:05:42.790Z,16.21
2023-05-09T09:08:10.877Z,16.18
2023-05-09T09:10:41.895Z,16.14
2023-05-09T09:13:10.488Z,16.07
2023-05-09T09:15:38.527Z,16.03
2023-05-09T09:18:09.041Z,16.06
2023-05-09T09:20:40.356Z,16.01
2023-05-09T09:23:10.554Z,16.04
2023-05-09T09:25:37.396Z,16.09
2023-05-09T09:28:04.998Z,16.13
2023-05-09T09:30:31.610Z,16.13
2023-05-09T09:33:00.831Z,16.11
2023-05-09T09:35:27.446Z,16.11
2023-05-09T09:38:00.643Z,16.11
2023-05-09T09:40:27.071Z,16.16
2023-05-09T09:42:56.319Z,16.16
2023-05-09T09:45:22.837Z,16.26
2023-05-09T09:47:50.267Z,16.27
2023-05-09T09:50:23.154Z,16.28
2023-05-09T09:52:55.714Z,16.26
2023-05-09T09:55:24.382Z,16.25
2023-05-09T09:57:51.559Z,16.22
2023-05-09T10:00:28.475Z,16.21
2023-05-09T10:02:59.424Z,16.22
2023-05-09T10:05:34.359Z,16.22
2023-05-09T10:08:03.796Z,16.23
2023-05-09T10:10:33.236Z,16.17
2023-05-09T10:13:07.629Z,16.15
2023-05-09T10:15:49.522Z,16.15
2023-05-09T10:18:24.898Z,16.15
2023-05-09T10:21:00.848Z,16.18
2023-05-09T10:23:30.958Z,16.23
2023-05-09T10:26:18.757Z,16.26
2023-05-09T10:28:49.297Z,16.23
2023-05-09T10:31:22.387Z,16.27
2023-05-09T10:33:50.367Z,16.30
2023-05-09T10:36:21.301Z,16.18
2023-05-09T10:38:49.295Z,16.25
2023-05-09T10:41:21.901Z,16.22
2023-05-09T10:43:48.831Z,16.19
2023-05-09T10:46:18.055Z,16.21
2023-05-09T10:48:46.566Z,16.20
2023-05-09T10:51:13.602Z,16.12
2023-05-09T10:53:48.807Z,16.18
2023-05-09T10:56:26.900Z,16.17
2023-05-09T10:58:54.663Z,16.19
2023-05-09T11:01:37.009Z,16.20
2023-05-09T11:04:16.382Z,16.14
2023-05-09T11:06:43.770Z,16.14
2023-05-09T11:09:27.554Z,16.10
2023-05-09T11:12:14.321Z,16.18
2023-05-09T11:14:48.978Z,16.18
2023-05-09T11:17:22.540Z,16.18
2023-05-09T11:19:51.676Z,16.16
2023-05-09T11:22:37.563Z,16.14
2023-05-09T11:25:17.487Z,16.16
2023-05-09T11:27:46.166Z,16.13
2023-05-09T11:30:14.999Z,16.14
2023-05-09T11:32:52.333Z,16.19
2023-05-09T11:35:21.047Z,16.27
2023-05-09T11:37:52.997Z,16.29
2023-05-09T11:40:24.693Z,16.33
2023-05-09T11:42:56.244Z,16.35
2023-05-09T11:45:26.741Z,16.37
2023-05-09T11:47:53.956Z,16.33
2023-05-09T11:50:21.652Z,16.25
2023-05-09T11:52:49.159Z,16.20
2023-05-09T11:55:22.998Z,16.20
2023-05-09T11:57:52.521Z,16.21
2023-05-09T12:00:26.267Z,16.19
2023-05-09T12:02:53.544Z,16.16
2023-05-09T12:05:22.065Z,16.13
2023-05-09T12:07:49.057Z,16.14
2023-05-09T12:10:19.267Z,16.15
2023-05-09T12:12:48.496Z,16.16
2023-05-09T12:15:15.902Z,16.12
2023-05-09T12:17:43.707Z,16.21
2023-05-09T12:20:11.002Z,16.19
2023-05-09T12:22:37.698Z,16.22
2023-05-09T12:25:09.569Z,16.24
2023-05-09T12:27:37.022Z,16.27
2023-05-09T12:30:08.860Z,16.26
2023-05-09T12:32:36.734Z,16.33
2023-05-09T12:35:03.650Z,16.33
2023-05-09T12:37:32.637Z,16.30
2023-05-09T12:40:13.198Z,16.30
2023-05-09T12:42:43.035Z,16.28
2023-05-09T12:45:10.386Z,16.25
2023-05-09T12:47:38.939Z,16.26
2023-05-09T12:50:07.409Z,16.30
2023-05-09T12:52:36.744Z,16.27
2023-05-09T12:55:11.362Z,16.26
2023-05-09T12:57:39.507Z,16.34
2023-05-09T13:00:07.955Z,16.37
2023-05-09T13:02:40.014Z,16.36
2023-05-09T13:05:11.013Z,16.39
2023-05-09T13:07:40.434Z,16.39
2023-05-09T13:10:28.486Z,16.45
2023-05-09T13:12:55.213Z,16.49
2023-05-09T13:15:23.423Z,16.56
2023-05-09T13:17:53.266Z,16.58
2023-05-09T13:20:19.876Z,16.59
2023-05-09T13:22:47.344Z,16.60
2023-05-09T13:25:14.328Z,16.62
2023-05-09T13:27:40.911Z,16.66
2023-05-09T13:30:08.521Z,16.69
2023-05-09T13:32:36.460Z,16.67
2023-05-09T13:35:06.751Z,16.64
2023-05-09T13:37:34.193Z,16.66
2023-05-09T13:40:04.201Z,16.64
2023-05-09T13:42:31.161Z,16.65
2023-05-09T13:45:00.761Z,16.64
2023-05-09T13:47:27.303Z,16.66
2023-05-09T13:49:54.002Z,16.71
2023-05-09T13:52:20.500Z,16.83
2023-05-09T13:54:47.152Z,16.84
2023-05-09T13:57:13.514Z,16.85
2023-05-09T13:59:43.163Z,16.83
2023-05-09T14:02:11.008Z,16.80
2023-05-09T14:04:37.565Z,16.75
2023-05-09T14:07:04.841Z,16.70
2023-05-09T14:09:31.339Z,16.65
2023-05-09T14:11:57.842Z,16.66
2023-05-09T14:14:25.472Z,16.57
2023-05-09T14:16:52.068Z,16.57
2023-05-09T14:19:18.708Z,16.59
2023-05-09T14:21:48.981Z,16.61
2023-05-09T14:24:18.905Z,16.63
2023-05-09T14:26:45.407Z,16.68
2023-05-09T14:29:12.180Z,16.75
2023-05-09T14:31:38.756Z,16.83
2023-05-09T14:34:06.207Z,16.89
2023-05-09T14:36:33.237Z,16.89
2023-05-09T14:38:59.682Z,16.86
2023-05-09T14:41:26.758Z,16.85
2023-05-09T14:43:53.401Z,16.82
2023-05-09T14:46:19.969Z,16.83
2023-05-09T14:48:46.473Z,16.82
2023-05-09T14:51:13.043Z,16.82
2023-05-09T14:53:42.187Z,16.79
2023-05-09T14:56:12.281Z,16.76
2023-05-09T14:58:38.912Z,16.71
2023-05-09T15:01:05.508Z,16.74
2023-05-09T15:03:32.113Z,16.79
2023-05-09T15:05:59.170Z,16.75
2023-05-09T15:08:26.002Z,16.73
2023-05-09T15:10:52.789Z,16.71
2023-05-09T15:13:19.522Z,16.74
2023-05-09T15:15:46.062Z,16.70
2023-05-09T15:18:16.622Z,16.60
2023-05-09T15:20:43.347Z,16.68
2023-05-09T15:23:10.803Z,16.63
2023-05-09T15:25:37.353Z,16.61
2023-05-09T15:28:03.930Z,16.62
2023-05-09T15:30:30.601Z,16.56
2023-05-09T15:32:57.475Z,16.53
2023-05-09T15:35:24.044Z,16.54
2023-05-09T15:37:50.537Z,16.53
2023-05-09T15:40:22.123Z,16.52
2023-05-09T15:42:52.728Z,16.48
2023-05-09T15:45:19.327Z,16.53
2023-05-09T15:47:45.961Z,16.56
2023-05-09T15:50:12.941Z,16.59
2023-05-09T15:52:39.551Z,16.59
2023-05-09T15:55:06.983Z,16.56
2023-05-09T15:57:33.589Z,16.56
2023-05-09T16:00:00.039Z,16.57
2023-05-09T16:02:30.414Z,16.58
2023-05-09T16:04:56.991Z,16.55
2023-05-09T16:07:23.524Z,16.49
2023-05-09T16:09:49.998Z,16.46
2023-05-09T16:12:16.632Z,16.44
2023-05-09T16:14:43.259Z,16.46
2023-05-09T16:17:09.806Z,16.46
2023-05-09T16:19:36.501Z,16.46
2023-05-09T16:22:03.356Z,16.50
2023-05-09T16:24:31.656Z,16.47
2023-05-09T16:26:58.184Z,16.47
2023-05-09T16:29:24.785Z,16.48
2023-05-09T16:31:51.410Z,16.49
2023-05-09T16:34:17.839Z,16.48
2023-05-09T16:36:46.500Z,16.47
2023-05-09T16:39:13.114Z,16.40
2023-05-09T16:41:39.609Z,16.39
2023-05-09T16:44:06.119Z,16.38
2023-05-09T16:46:32.533Z,16.36
2023-05-09T16:48:58.898Z,16.38
2023-05-09T16:51:25.393Z,16.36
2023-05-09T16:53:51.974Z,16.32
2023-05-09T16:56:18.432Z,16.32
2023-05-09T16:58:44.968Z,16.34
2023-05-09T17:01:11.656Z,16.33
2023-05-09T17:03:38.245Z,16.33
2023-05-09T17:06:04.850Z,16.33
2023-05-09T17:08:31.493Z,16.32
2023-05-09T17:10:58.167Z,16.36
2023-05-09T17:13:24.806Z,16.34
2023-05-09T17:15:52.642Z,16.30
2023-05-09T17:18:33.205Z,16.21
2023-05-09T17:21:03.127Z,16.20
2023-05-09T17:23:29.523Z,16.16
2023-05-09T17:25:55.881Z,16.12
2023-05-09T17:28:22.376Z,16.11
2023-05-09T17:30:48.834Z,16.08
2023-05-09T17:33:15.564Z,16.08
2023-05-09T17:35:41.970Z,16.06
2023-05-09T17:38:08.382Z,16.09
2023-05-09T17:40:34.858Z,16.08
2023-05-09T17:43:01.231Z,16.00
2023-05-09T17:45:27.660Z,16.08
2023-05-09T17:47:54.057Z,16.11
2023-05-09T17:50:20.692Z,16.10
2023-05-09T17:52:49.382Z,16.11
2023-05-09T17:55:16.023Z,16.09
2023-05-09T17:57:43.339Z,15.99
2023-05-09T18:00:10.302Z,16.08
2023-05-09T18:02:36.977Z,16.08
2023-05-09T18:05:03.888Z,16.06
2023-05-09T18:07:32.111Z,16.04
2023-05-09T18:09:58.647Z,16.04
2023-05-09T18:12:27.559Z,16.00
2023-05-09T18:14:55.294Z,15.96
2023-05-09T18:17:21.866Z,15.94
2023-05-09T18:19:48.378Z,15.92
2023-05-09T18:22:15.675Z,15.93
2023-05-09T18:24:42.188Z,15.97
2023-05-09T18:27:08.616Z,16.01
2023-05-09T18:29:35.052Z,16.00
2023-05-09T18:32:01.968Z,16.01
2023-05-09T18:34:28.848Z,16.03
2023-05-09T18:36:55.748Z,16.03
2023-05-09T18:39:22.184Z,16.03
2023-05-09T18:41:48.720Z,16.02
2023-05-09T18:44:15.288Z,15.99
2023-05-09T18:46:41.945Z,15.98
2023-05-09T18:49:09.486Z,15.96
2023-05-09T18:51:36.469Z,15.98
2023-05-09T18:54:02.932Z,15.96
2023-05-09T18:56:29.394Z,15.91
2023-05-09T18:58:58.802Z,15.85
2023-05-09T19:01:25.639Z,15.79
2023-05-09T19:03:54.337Z,15.80
2023-05-09T19:06:21.972Z,15.79
2023-05-09T19:08:48.647Z,15.76
2023-05-09T19:11:15.055Z,15.72
2023-05-09T19:13:50.479Z,15.70
2023-05-09T19:16:19.592Z,15.70
2023-05-09T19:18:46.182Z,15.68
2023-05-09T19:21:13.665Z,15.67
2023-05-09T19:23:40.134Z,15.63
2023-05-09T19:26:06.939Z,15.63
2023-05-09T19:28:34.874Z,15.63
2023-05-09T19:31:02.020Z,15.63
2023-05-09T19:33:28.492Z,15.62
2023-05-09T19:35:54.926Z,15.61
2023-05-09T19:38:21.492Z,15.58
2023-05-09T19:40:51.122Z,15.58
2023-05-09T19:43:17.630Z,15.52
2023-05-09T19:45:44.049Z,15.51
2023-05-09T19:48:15.730Z,15.47
2023-05-09T19:50:42.879Z,15.47
2023-05-09T19:53:09.473Z,15.45
2023-05-09T19:55:36.052Z,15.39
2023-05-09T19:58:02.840Z,15.42
2023-05-09T20:00:29.302Z,15.42
2023-05-09T20:02:55.877Z,15.39
2023-05-09T20:05:22.365Z,15.34
2023-05-09T20:08:09.480Z,15.29
2023-05-09T20:10:36.216Z,15.25
2023-05-09T20:13:04.250Z,15.22
2023-05-09T20:15:31.242Z,15.24
2023-05-09T20:17:58.265Z,15.22
2023-05-09T20:20:24.906Z,15.23
2023-05-09T20:22:51.420Z,15.24
2023-05-09T20:25:17.835Z,15.23
2023-05-09T20:27:44.305Z,15.22
2023-05-09T20:30:11.483Z,15.19
2023-05-09T20:32:38.021Z,15.21
2023-05-09T20:35:04.947Z,15.20
2023-05-09T20:37:31.817Z,15.16
2023-05-09T20:39:58.363Z,15.14
2023-05-09T20:42:27.828Z,15.10
2023-05-09T20:44:55.086Z,15.10
2023-05-09T20:47:21.659Z,15.11
2023-05-09T20:49:48.160Z,15.11
2023-05-09T20:52:14.600Z,15.08
2023-05-09T20:54:41.148Z,15.09
2023-05-09T20:57:07.773Z,15.08
2023-05-09T20:59:34.296Z,15.07
2023-05-09T21:02:00.771Z,15.07
2023-05-09T21:04:27.269Z,15.05
2023-05-09T21:06:59.814Z,15.04
2023-05-09T21:09:26.345Z,15.02
2023-05-09T21:11:52.835Z,14.92
2023-05-09T21:14:19.445Z,14.99
2023-05-09T21:16:49.054Z,14.99
2023-05-09T21:19:18.388Z,14.99
2023-05-09T21:21:44.843Z,14.99
2023-05-09T21:24:11.276Z,14.99
2023-05-09T21:26:37.752Z,14.99
2023-05-09T21:29:04.354Z,15.00
2023-05-09T21:31:31.295Z,14.99
2023-05-09T21:33:59.159Z,14.97
2023-05-09T21:36:25.822Z,14.95
2023-05-09T21:38:52.485Z,14.97
2023-05-09T21:41:19.056Z,14.95
2023-05-09T21:43:45.725Z,14.94
2023-05-09T21:46:12.434Z,14.94
2023-05-09T21:48:42.433Z,14.93
2023-05-09T21:51:08.888Z,14.93
2023-05-09T21:53:35.402Z,14.93
2023-05-09T21:56:02.156Z,14.93
2023-05-09T21:58:28.532Z,14.95
2023-05-09T22:00:54.937Z,14.93
2023-05-09T22:03:21.578Z,14.92
2023-05-09T22:05:48.029Z,14.91
2023-05-09T22:08:14.477Z,14.87
2023-05-09T22:10:41.042Z,14.89
2023-05-09T22:13:08.953Z,14.89
2023-05-09T22:15:35.462Z,14.87
2023-05-09T22:18:02.049Z,14.88
2023-05-09T22:20:28.707Z,14.89
2023-05-09T22:22:55.114Z,14.87
2023-05-09T22:25:21.556Z,14.87
2023-05-09T22:27:48.062Z,14.87
2023-05-09T22:30:14.841Z,14.87
2023-05-09T22:32:41.567Z,14.86
2023-05-09T22:35:08.522Z,14.85
2023-05-09T22:37:34.926Z,14.85
2023-05-09T22:40:01.464Z,14.84
2023-05-09T22:42:29.359Z,14.84
2023-05-09T22:44:55.874Z,14.82
2023-05-09T22:47:22.355Z,14.82
2023-05-09T22:49:49.562Z,14.82
2023-05-09T22:52:16.405Z,14.83
2023-05-09T22:54:42.914Z,14.83
2023-05-09T22:57:09.786Z,14.81
2023-05-09T22:59:37.004Z,14.79
2023-05-09T23:02:03.834Z,14.78
2023-05-09T23:04:30.363Z,14.76
2023-05-09T23:06:56.787Z,14.75
2023-05-09T23:09:23.397Z,14.73
2023-05-09T23:11:49.911Z,14.74
2023-05-09T23:14:16.498Z,14.75
2023-05-09T23:16:43.067Z,14.73
2023-05-09T23:19:10.616Z,14.72
2023-05-09T23:21:37.262Z,14.72
2023-05-09T23:24:06.776Z,14.72
2023-05-09T23:26:33.353Z,14.71
2023-05-09T23:29:02.472Z,14.70
2023-05-09T23:31:28.924Z,14.71
2023-05-09T23:33:55.376Z,14.71
2023-05-09T23:36:27.397Z,14.71
2023-05-09T23:38:53.943Z,14.71
2023-05-09T23:41:21.943Z,14.71
2023-05-09T23:43:48.612Z,14.70
2023-05-09T23:46:16.064Z,14.70
2023-05-09T23:48:42.608Z,14.69
2023-05-09T23:51:09.037Z,14.70
2023-05-09T23:53:35.428Z,14.71
2023-05-09T23:56:02.839Z,14.67
2023-05-09T23:58:29.389Z,14.69
